createdAt,value
2023-05-23T00:02:03.337Z,96741.00
2023-05-23T00:07:05.153Z,96740.50
2023-05-23T00:12:07.234Z,96742.31
2023-05-23T00:17:10.844Z,96747.38
2023-05-23T00:22:13.258Z,96744.31
2023-05-23T00:27:15.041Z,96743.06
2023-05-23T00:32:16.982Z,96741.59
2023-05-23T00:37:18.718Z,96736.38
2023-05-23T00:42:20.434Z,96745.03
2023-05-23T00:47:22.235Z,96751.91
2023-05-23T00:52:24.760Z,96757.34
2023-05-23T00:57:26.581Z,96762.22
2023-05-23T01:02:32.277Z,96762.06
2023-05-23T01:07:34.068Z,96771.53
2023-05-23T01:13:20.428Z,96772.03
2023-05-23T01:18:33.562Z,96773.00
2023-05-23T01:24:07.992Z,96765.34
2023-05-23T01:29:26.906Z,96776.94
2023-05-23T01:34:30.492Z,96781.34
2023-05-23T01:39:33.925Z,96773.88
2023-05-23T01:44:36.422Z,96778.94
2023-05-23T01:49:38.749Z,96778.09
2023-05-23T01:54:42.579Z,96785.75
2023-05-23T01:59:45.425Z,96784.78
2023-05-23T02:04:49.462Z,96783.00
2023-05-23T02:09:54.417Z,96787.22
2023-05-23T02:14:57.057Z,96779.38
2023-05-23T02:19:59.001Z,96775.28
2023-05-23T02:25:00.742Z,96785.25
2023-05-23T02:30:02.484Z,96783.28
2023-05-23T02:35:05.557Z,96793.91
2023-05-23T02:40:08.066Z,96785.75
2023-05-23T02:45:11.377Z,96798.81
2023-05-23T02:50:13.846Z,96803.88
2023-05-23T02:55:15.769Z,96797.16
2023-05-23T03:00:21.655Z,96803.03
2023-05-23T03:05:28.587Z,96804.50
2023-05-23T03:10:30.700Z,96790.00
2023-05-23T03:15:32.584Z,96791.28
2023-05-23T03:20:35.650Z,96795.81
2023-05-23T03:25:37.493Z,96800.53
2023-05-23T03:30:40.434Z,96793.84
2023-05-23T03:35:42.587Z,96805.03
2023-05-23T03:40:44.635Z,96803.31
2023-05-23T03:45:47.545Z,96804.13
2023-05-23T03:50:52.272Z,96808.13
2023-05-23T03:55:54.286Z,96813.19
2023-05-23T04:00:56.724Z,96818.06
2023-05-23T04:06:01.020Z,96814.19
2023-05-23T04:11:03.411Z,96814.72
2023-05-23T04:16:10.845Z,96816.09
2023-05-23T04:21:12.992Z,96814.19
2023-05-23T04:26:24.126Z,96817.44
2023-05-23T04:31:28.205Z,96817.78
2023-05-23T04:36:30.302Z,96823.97
2023-05-23T04:41:32.541Z,96834.19
2023-05-23T04:46:34.442Z,96845.03
2023-05-23T04:51:47.370Z,96851.72
2023-05-23T04:56:56.393Z,96858.13
2023-05-23T05:02:00.309Z,96863.16
2023-05-23T05:07:04.206Z,96862.38
2023-05-23T05:12:06.458Z,96859.00
2023-05-23T05:17:08.743Z,96865.03
2023-05-23T05:22:29.689Z,96857.88
2023-05-23T05:27:31.596Z,96864.41
2023-05-23T05:32:33.798Z,96874.19
2023-05-23T05:37:37.024Z,96871.75
2023-05-23T05:42:39.606Z,96865.94
2023-05-23T05:47:41.906Z,96880.44
2023-05-23T05:52:43.928Z,96887.78
2023-05-23T05:57:47.073Z,96885.00
2023-05-23T06:02:51.973Z,96891.19
2023-05-23T06:08:05.063Z,96887.97
2023-05-23T06:13:06.996Z,96904.63
2023-05-23T06:18:09.686Z,96908.38
2023-05-23T06:23:11.880Z,96915.91
2023-05-23T06:28:15.430Z,96914.44
2023-05-23T06:33:17.348Z,96921.75
2023-05-23T06:38:19.408Z,96930.06
2023-05-23T06:43:21.176Z,96931.06
2023-05-23T06:48:35.306Z,96926.81
2023-05-23T06:53:37.079Z,96926.28
2023-05-23T06:58:39.404Z,96923.53
2023-05-23T07:03:44.409Z,96923.88
2023-05-23T07:08:47.274Z,96935.44
2023-05-23T07:13:50.776Z,96933.31
2023-05-23T07:19:01.852Z,96937.09
2023-05-23T07:24:06.065Z,96941.81
2023-05-23T07:29:08.238Z,96938.69
2023-05-23T07:34:10.373Z,96944.09
2023-05-23T07:39:25.853Z,96938.72
2023-05-23T07:44:29.196Z,96939.53
2023-05-23T07:49:31.165Z,96951.94
2023-05-23T07:54:33.882Z,96941.94
2023-05-23T07:59:38.544Z,96935.56
2023-05-23T08:04:40.920Z,96938.47
2023-05-23T08:09:43.331Z,96946.63
2023-05-23T08:14:54.531Z,96956.56
2023-05-23T08:20:05.260Z,96954.59
2023-05-23T08:25:08.359Z,96955.22
2023-05-23T08:30:13.348Z,96955.66
2023-05-23T08:35:15.358Z,96954.34
2023-05-23T08:40:22.300Z,96959.84
2023-05-23T08:45:37.349Z,96965.13
2023-05-23T08:50:40.937Z,96959.94
2023-05-23T08:55:43.144Z,96967.22
2023-05-23T09:00:45.967Z,96976.31
2023-05-23T09:05:50.298Z,96973.91
2023-05-23T09:10:54.711Z,96968.84
2023-05-23T09:16:09.285Z,96978.06
2023-05-23T09:21:24.714Z,96980.09
2023-05-23T09:26:41.304Z,96982.34
2023-05-23T09:31:44.348Z,96987.97
2023-05-23T09:36:46.781Z,96991.41
2023-05-23T09:41:49.449Z,96993.47
2023-05-23T09:46:54.540Z,96991.59
2023-05-23T09:52:01.313Z,96989.31
2023-05-23T09:57:06.107Z,96983.75
2023-05-23T10:02:12.031Z,96980.47
2023-05-23T10:07:18.063Z,96985.38
2023-05-23T10:12:23.209Z,96987.63
2023-05-23T10:17:33.370Z,96993.81
2023-05-23T10:22:37.010Z,97001.75
2023-05-23T10:27:39.689Z,96995.50
2023-05-23T10:32:42.777Z,96994.34
2023-05-23T10:37:57.075Z,96977.31
2023-05-23T10:43:10.635Z,96987.91
2023-05-23T10:48:33.079Z,96983.75
2023-05-23T10:53:54.593Z,96975.13
2023-05-23T10:58:58.393Z,96977.84
2023-05-23T11:04:05.533Z,96984.88
2023-05-23T11:09:12.083Z,96978.69
2023-05-23T11:14:13.961Z,96979.97
2023-05-23T11:19:18.807Z,96986.72
2023-05-23T11:24:20.951Z,96981.66
2023-05-23T11:29:22.864Z,96978.00
2023-05-23T11:34:27.756Z,96981.75
2023-05-23T11:39:29.531Z,96977.22
2023-05-23T11:44:31.232Z,96967.34
2023-05-23T11:49:35.650Z,96959.47
2023-05-23T11:54:41.207Z,96963.19
2023-05-23T11:59:44.434Z,96952.50
2023-05-23T12:04:46.200Z,96953.97
2023-05-23T12:09:48.236Z,96961.09
2023-05-23T12:14:50.197Z,96962.97
2023-05-23T12:19:53.015Z,96971.91
2023-05-23T12:24:58.250Z,96967.34
2023-05-23T12:30:09.513Z,96972.72
2023-05-23T12:35:14.022Z,96982.69
2023-05-23T12:40:18.027Z,96974.09
2023-05-23T12:45:24.761Z,96979.72
2023-05-23T12:50:26.525Z,96985.03
2023-05-23T12:55:28.298Z,96984.81
2023-05-23T13:00:30.071Z,96981.53
2023-05-23T13:05:31.974Z,96991.09
2023-05-23T13:10:33.731Z,96992.59
2023-05-23T13:15:35.507Z,97016.75
2023-05-23T13:20:37.733Z,97001.31
2023-05-23T13:25:39.582Z,97004.38
2023-05-23T13:30:43.511Z,96996.19
2023-05-23T13:35:49.244Z,97004.81
2023-05-23T13:40:51.807Z,97009.44
2023-05-23T13:45:53.651Z,97002.00
2023-05-23T13:53:58.589Z,97004.31
2023-05-23T13:59:01.156Z,97004.91
2023-05-23T14:04:04.747Z,96985.75
2023-05-23T14:09:07.964Z,97004.25
2023-05-23T14:14:15.567Z,96991.91
2023-05-23T14:19:17.483Z,96990.16
2023-05-23T14:24:19.500Z,96991.91
2023-05-23T14:29:21.465Z,96987.00
2023-05-23T14:34:23.163Z,96986.88
2023-05-23T14:39:25.647Z,97000.16
2023-05-23T14:44:28.116Z,96991.28
2023-05-23T14:49:30.832Z,96994.78
2023-05-23T14:54:33.061Z,97003.75
2023-05-23T14:59:35.215Z,97002.75
2023-05-23T15:04:37.331Z,96997.91
2023-05-23T15:09:39.470Z,97009.44
2023-05-23T15:14:43.288Z,97006.09
2023-05-23T15:19:46.065Z,97004.91
2023-05-23T15:24:47.942Z,97016.59
2023-05-23T15:29:49.716Z,97025.44
2023-05-23T15:34:51.795Z,97034.16
2023-05-23T15:39:53.584Z,97028.03
2023-05-23T15:44:55.392Z,97025.41
2023-05-23T15:49:57.137Z,97032.69
2023-05-23T15:54:58.995Z,97036.47
2023-05-23T16:00:00.973Z,97046.53
2023-05-23T16:05:02.744Z,97048.13
2023-05-23T16:10:05.215Z,97055.88
2023-05-23T16:15:07.610Z,97053.69
2023-05-23T16:20:09.908Z,97052.81
2023-05-23T16:25:11.723Z,97041.13
2023-05-23T16:30:13.639Z,97045.53
2023-05-23T16:35:15.604Z,97036.09
2023-05-23T16:40:19.478Z,97045.00
2023-05-23T16:45:21.638Z,97039.69
2023-05-23T16:50:23.402Z,97033.72
2023-05-23T16:55:25.436Z,97043.50
2023-05-23T17:00:27.238Z,97034.41
2023-05-23T17:05:29.233Z,97037.41
2023-05-23T17:10:31.099Z,97039.34
2023-05-23T17:15:32.878Z,97046.34
2023-05-23T17:20:34.757Z,97042.00
2023-05-23T17:25:37.248Z,97045.88
2023-05-23T17:30:39.009Z,97049.69
2023-05-23T17:35:40.765Z,97051.16
2023-05-23T17:40:42.919Z,97057.78
2023-05-23T17:45:45.134Z,97066.66
2023-05-23T17:50:47.752Z,97070.00
2023-05-23T17:55:49.458Z,97068.72
2023-05-23T18:00:51.895Z,97073.19
2023-05-23T18:05:53.852Z,97076.00
2023-05-23T18:10:55.609Z,97073.75
2023-05-23T18:15:57.474Z,97079.31
2023-05-23T18:20:59.270Z,97078.31
2023-05-23T18:26:01.004Z,97082.69
2023-05-23T18:31:02.869Z,97076.97
2023-05-23T18:36:04.770Z,97091.50
2023-05-23T18:41:06.663Z,97096.88
2023-05-23T18:46:08.830Z,97095.06
2023-05-23T18:51:12.220Z,97102.22
2023-05-23T18:56:13.951Z,97117.69
2023-05-23T19:01:16.627Z,97126.00
2023-05-23T19:06:18.709Z,97137.03
2023-05-23T19:11:20.455Z,97143.97
2023-05-23T19:16:22.270Z,97144.53
2023-05-23T19:21:24.328Z,97152.97
2023-05-23T19:26:26.040Z,97162.94
2023-05-23T19:31:28.419Z,97168.47
2023-05-23T19:36:30.362Z,97180.19
2023-05-23T19:41:35.433Z,97181.94
2023-05-23T19:46:37.708Z,97187.31
2023-05-23T19:51:39.517Z,97198.22
2023-05-23T19:56:42.203Z,97201.28
2023-05-23T20:01:44.171Z,97205.91
2023-05-23T20:06:46.380Z,97210.19
2023-05-23T20:11:48.243Z,97216.03
2023-05-23T20:16:50.023Z,97220.72
2023-05-23T20:21:51.846Z,97229.78
2023-05-23T20:26:53.645Z,97236.56
2023-05-23T20:31:56.092Z,97241.72
2023-05-23T20:36:57.828Z,97245.91
2023-05-23T20:41:59.711Z,97250.72
2023-05-23T20:47:02.376Z,97247.88
2023-05-23T20:52:05.448Z,97252.47
2023-05-23T20:57:07.353Z,97255.03
2023-05-23T21:02:09.118Z,97264.22
2023-05-23T21:07:11.131Z,97270.38
2023-05-23T21:12:12.918Z,97275.50
2023-05-23T21:17:16.101Z,97272.25
2023-05-23T21:22:17.935Z,97276.22
2023-05-23T21:27:19.669Z,97274.66
2023-05-23T21:32:22.335Z,97269.41
2023-05-23T21:37:24.443Z,97277.22
2023-05-23T21:42:26.426Z,97291.28
2023-05-23T21:47:28.379Z,97287.13
2023-05-23T21:52:30.745Z,97288.75
2023-05-23T21:57:32.500Z,97288.38
2023-05-23T22:02:34.356Z,97294.09
2023-05-23T22:07:36.634Z,97302.31
2023-05-23T22:12:38.848Z,97311.28
2023-05-23T22:17:43.710Z,97309.47
2023-05-23T22:22:45.803Z,97314.56
2023-05-23T22:27:47.650Z,97307.66
2023-05-23T22:32:49.728Z,97311.50
2023-05-23T22:37:51.606Z,97307.88
2023-05-23T22:42:53.331Z,97305.09
2023-05-23T22:47:55.111Z,97303.16
2023-05-23T22:52:58.310Z,97309.66
2023-05-23T22:58:00.454Z,97304.13
2023-05-23T23:03:02.741Z,97300.00
2023-05-23T23:08:06.019Z,97288.78
2023-05-23T23:13:07.762Z,97294.88
2023-05-23T23:18:09.826Z,97307.56
2023-05-23T23:23:11.699Z,97289.28
2023-05-23T23:28:13.410Z,97281.75
2023-05-23T23:33:15.632Z,97286.81
2023-05-23T23:38:18.414Z,97292.31
2023-05-23T23:43:20.109Z,97289.41
2023-05-23T23:48:21.948Z,97298.50
2023-05-23T23:53:23.789Z,97284.09
2023-05-23T23:58:26.313Z,97280.22
